createdAt,value
2023-03-11T00:00:22.571Z,23.90
2023-03-11T00:01:22.646Z,23.90
2023-03-11T00:02:22.782Z,23.90
2023-03-11T00:03:22.828Z,23.89
2023-03-11T00:04:23.200Z,23.89
2023-03-11T00:05:23.092Z,23.89
2023-03-11T00:06:23.074Z,23.89
2023-03-11T00:07:23.170Z,23.90
2023-03-11T00:08:23.254Z,23.90
2023-03-11T00:09:23.330Z,23.87
2023-03-11T00:10:23.413Z,23.87
2023-03-11T00:11:23.585Z,23.84
2023-03-11T00:12:23.596Z,23.89
2023-03-11T00:13:23.671Z,23.89
2023-03-11T00:14:23.746Z,23.84
2023-03-11T00:15:23.826Z,23.87
2023-03-11T00:16:23.968Z,23.89
2023-03-11T00:17:23.993Z,23.90
2023-03-11T00:18:24.085Z,23.87
2023-03-11T00:19:24.162Z,23.90
2023-03-11T00:20:24.251Z,23.86
2023-03-11T00:21:24.386Z,23.90
2023-03-11T01:15:28.977Z,23.83
2023-03-11T01:16:29.045Z,23.84
2023-03-11T01:17:29.143Z,23.84
2023-03-11T01:18:29.220Z,23.83
2023-03-11T01:19:29.291Z,23.84
2023-03-11T01:20:29.379Z,23.83
2023-03-11T01:21:29.480Z,23.83
2023-03-11T01:22:29.617Z,23.84
2023-03-11T01:23:29.624Z,23.84
2023-03-11T01:24:29.717Z,23.84
2023-03-11T01:25:29.804Z,23.84
2023-03-11T01:26:29.952Z,23.83
2023-03-11T01:27:29.983Z,23.84
2023-03-11T01:28:30.721Z,23.86
2023-03-11T01:29:30.147Z,23.86
2023-03-11T01:30:30.238Z,23.86
2023-03-11T01:31:30.345Z,23.84
2023-03-11T01:32:30.511Z,23.83
2023-03-11T01:33:30.498Z,23.81
2023-03-11T01:34:30.594Z,23.84
2023-03-11T01:35:30.740Z,23.83
2023-03-11T01:36:30.766Z,23.84
2023-03-11T01:37:30.845Z,23.83
2023-03-11T01:38:30.930Z,23.83
2023-03-11T01:39:31.069Z,23.83
2023-03-11T01:40:31.180Z,23.81
2023-03-11T01:41:31.185Z,23.81
2023-03-11T01:42:31.275Z,23.84
2023-03-11T01:43:31.362Z,23.84
2023-03-11T01:44:31.444Z,23.83
2023-03-11T01:45:31.528Z,23.84
2023-03-11T01:46:31.655Z,23.80
2023-03-11T01:47:31.701Z,23.81
2023-03-11T01:48:31.793Z,23.83
2023-03-11T01:49:31.894Z,23.81
2023-03-11T01:50:31.981Z,23.81
2023-03-11T01:51:32.067Z,23.81
2023-03-11T01:52:32.150Z,23.81
2023-03-11T01:53:32.245Z,23.80
2023-03-11T01:54:32.337Z,23.84
2023-03-11T01:55:32.417Z,23.83
2023-03-11T01:56:32.518Z,23.83
2023-03-11T01:57:32.685Z,23.81
2023-03-11T01:58:33.269Z,23.83
2023-03-11T01:59:32.780Z,23.83
2023-03-11T02:00:32.874Z,23.83
2023-03-11T02:01:33.030Z,23.81
2023-03-11T02:02:33.124Z,23.80
2023-03-11T02:03:33.132Z,23.80
2023-03-11T02:04:33.280Z,23.81
2023-03-11T02:05:33.315Z,23.81
2023-03-11T02:06:34.265Z,23.84
2023-03-11T02:07:34.229Z,23.81
2023-03-11T03:08:38.931Z,23.81
2023-03-11T03:09:39.007Z,23.80
2023-03-11T03:10:39.086Z,23.80
2023-03-11T03:12:39.274Z,23.79
2023-03-11T03:13:39.369Z,23.81
2023-03-11T03:14:39.462Z,23.77
2023-03-11T03:15:39.538Z,23.80
2023-03-11T03:16:39.739Z,23.80
2023-03-11T03:17:39.781Z,23.77
2023-03-11T03:18:39.905Z,23.81
2023-03-11T05:00:49.001Z,23.77
2023-03-11T05:01:49.168Z,23.74
2023-03-11T05:02:49.195Z,23.76
2023-03-11T05:03:49.261Z,23.76
2023-03-11T05:04:49.436Z,23.76
2023-03-11T05:05:49.445Z,23.77
2023-03-11T05:06:49.542Z,23.77
2023-03-11T05:07:49.639Z,23.76
2023-03-11T05:08:49.732Z,23.76
2023-03-11T05:09:49.837Z,23.74
2023-03-11T05:10:49.994Z,23.76
2023-03-11T05:11:50.015Z,23.79
2023-03-11T05:12:50.106Z,23.77
2023-03-11T05:13:50.185Z,23.76
2023-03-11T05:14:50.276Z,23.73
2023-03-11T05:15:50.500Z,23.74
2023-03-11T05:16:50.462Z,23.76
2023-03-11T05:17:50.583Z,23.76
2023-03-11T05:18:50.626Z,23.74
2023-03-11T05:19:50.721Z,23.74
2023-03-11T05:20:50.838Z,23.76
2023-03-11T05:21:50.906Z,23.74
2023-03-11T05:22:50.991Z,23.74
2023-03-11T05:23:51.073Z,23.76
2023-03-11T05:24:51.162Z,23.74
2023-03-11T05:25:51.258Z,23.76
2023-03-11T05:26:51.351Z,23.76
2023-03-11T05:27:51.438Z,23.74
2023-03-11T05:28:51.527Z,23.76
2023-03-11T05:29:51.619Z,23.76
2023-03-11T05:30:51.734Z,23.74
2023-03-11T05:31:51.793Z,23.77
2023-03-11T05:32:52.049Z,23.74
2023-03-11T05:33:51.958Z,23.74
2023-03-11T05:34:52.040Z,23.76
2023-03-11T05:35:52.249Z,23.74
2023-03-11T05:36:52.233Z,23.74
2023-03-11T05:37:52.318Z,23.77
2023-03-11T05:38:52.401Z,23.74
2023-03-11T05:39:52.497Z,23.74
2023-03-11T05:40:52.581Z,23.76
2023-03-11T05:41:52.670Z,23.76
2023-03-11T05:42:52.759Z,23.76
2023-03-11T05:43:52.846Z,23.74
2023-03-11T05:44:52.950Z,23.76
2023-03-11T05:45:53.038Z,23.76
2023-03-11T05:46:53.269Z,23.77
2023-03-11T05:47:53.194Z,23.74
2023-03-11T05:48:53.313Z,23.76
2023-03-11T05:49:53.378Z,23.74
2023-03-11T06:53:59.008Z,23.79
2023-03-11T06:54:59.088Z,23.77
2023-03-11T06:55:59.180Z,23.79
2023-03-11T06:56:59.268Z,23.79
2023-03-11T06:57:59.343Z,23.77
2023-03-11T06:58:59.437Z,23.77
2023-03-11T06:59:59.526Z,23.81
2023-03-11T07:00:59.639Z,23.80
2023-03-11T07:01:59.698Z,23.79
2023-03-11T07:03:00.345Z,23.80
2023-03-11T07:03:59.909Z,23.77
2023-03-11T07:04:59.968Z,23.79
2023-03-11T07:06:00.052Z,23.79
2023-03-11T07:07:00.350Z,23.80
2023-03-11T07:08:00.227Z,23.80
2023-03-11T07:09:00.302Z,23.79
2023-03-11T07:10:00.387Z,23.77
2023-03-11T07:11:00.468Z,23.79
2023-03-11T07:12:00.577Z,23.80
2023-03-11T07:13:00.639Z,23.80
2023-03-11T07:14:00.723Z,23.79
2023-03-11T07:15:01.189Z,23.77
2023-03-11T07:16:00.910Z,23.79
2023-03-11T07:17:01.048Z,23.79
2023-03-11T07:18:01.070Z,23.79
2023-03-11T07:19:01.161Z,23.79
2023-03-11T07:20:01.248Z,23.81
2023-03-11T07:21:01.338Z,23.79
2023-03-11T07:22:01.440Z,23.79
2023-03-11T07:23:01.507Z,23.77
2023-03-11T07:24:01.665Z,23.77
2023-03-11T07:25:01.687Z,23.80
2023-03-11T07:26:01.766Z,23.79
2023-03-11T07:27:01.869Z,23.79
2023-03-11T07:28:01.928Z,23.80
2023-03-11T07:29:02.020Z,23.79
2023-03-11T07:30:02.108Z,23.77
2023-03-11T07:31:03.112Z,23.79
2023-03-11T07:32:02.197Z,23.81
2023-03-11T07:33:02.167Z,23.80
2023-03-11T07:34:02.189Z,23.80
2023-03-11T07:35:02.318Z,23.81
2023-03-11T07:36:02.335Z,23.80
2023-03-11T07:37:02.284Z,23.79
2023-03-11T07:38:02.293Z,23.81
2023-03-11T07:39:04.126Z,23.81
2023-03-11T07:40:02.334Z,23.80
2023-03-11T07:41:02.373Z,23.80
2023-03-11T07:42:02.468Z,23.79
2023-03-11T07:43:02.557Z,23.80
2023-03-11T07:44:02.639Z,23.79
2023-03-11T07:45:02.714Z,23.77
2023-03-11T07:46:02.855Z,23.77
2023-03-11T07:47:02.873Z,23.80
2023-03-11T07:48:02.964Z,23.79
2023-03-11T07:49:03.043Z,23.80
2023-03-11T07:50:03.136Z,23.79
2023-03-11T07:51:03.210Z,23.80
2023-03-11T07:52:03.312Z,23.79
2023-03-11T07:53:03.396Z,23.81
2023-03-11T07:54:03.486Z,23.83
2023-03-11T07:55:03.558Z,23.80
2023-03-11T07:56:03.646Z,23.80
2023-03-11T07:57:03.758Z,23.80
2023-03-11T07:58:03.826Z,23.81
2023-03-11T07:59:03.896Z,23.81
2023-03-11T08:00:04.073Z,23.80
2023-03-11T08:59:08.944Z,23.90
2023-03-11T09:00:10.229Z,23.90
2023-03-11T09:01:09.168Z,23.87
2023-03-11T09:02:09.196Z,23.87
2023-03-11T09:03:09.276Z,23.89
2023-03-11T09:04:09.424Z,23.89
2023-03-11T09:05:09.455Z,23.87
2023-03-11T09:06:09.607Z,23.89
2023-03-11T09:07:09.616Z,23.89
2023-03-11T09:08:09.686Z,23.86
2023-03-11T09:09:09.780Z,23.89
2023-03-11T09:10:09.878Z,23.90
2023-03-11T09:11:09.975Z,23.89
2023-03-11T09:12:10.898Z,23.90
2023-03-11T09:13:10.104Z,23.89
2023-03-11T09:14:10.192Z,23.89
2023-03-11T09:15:10.349Z,23.89
2023-03-11T09:16:10.376Z,23.87
2023-03-11T09:17:10.449Z,23.87
2023-03-11T09:18:10.528Z,23.87
2023-03-11T09:19:10.610Z,23.86
2023-03-11T11:05:19.001Z,23.99
2023-03-11T11:06:19.052Z,23.97
2023-03-11T11:07:19.140Z,24.00
2023-03-11T11:08:19.216Z,23.99
2023-03-11T11:09:19.296Z,24.00
2023-03-11T11:10:19.519Z,24.00
2023-03-11T11:11:20.445Z,23.99
2023-03-11T11:12:19.517Z,24.00
2023-03-11T11:13:19.608Z,23.97
2023-03-11T11:14:19.687Z,23.97
2023-03-11T11:15:19.770Z,23.97
2023-03-11T11:16:19.859Z,23.97
2023-03-11T11:17:19.929Z,23.99
2023-03-11T11:18:20.009Z,24.00
2023-03-11T11:19:20.080Z,23.99
2023-03-11T11:20:20.164Z,23.97
2023-03-11T11:21:20.231Z,23.97
2023-03-11T11:22:20.325Z,24.01
2023-03-11T11:23:20.460Z,24.00
2023-03-11T11:24:20.465Z,23.99
2023-03-11T11:25:20.601Z,23.96
2023-03-11T11:26:20.629Z,23.97
2023-03-11T11:27:20.714Z,24.00
2023-03-11T11:28:20.793Z,24.00
2023-03-11T11:29:20.859Z,24.00
2023-03-11T11:30:20.935Z,23.99
2023-03-11T11:31:21.008Z,24.00
2023-03-11T11:32:21.160Z,23.99
2023-03-11T11:33:21.164Z,23.99
2023-03-11T11:34:23.103Z,23.99
2023-03-11T11:35:21.407Z,24.00
2023-03-11T11:36:21.396Z,23.97
2023-03-11T11:37:21.467Z,24.00
2023-03-11T11:38:21.545Z,23.99
2023-03-11T11:39:21.613Z,23.97
2023-03-11T11:40:21.703Z,23.97
2023-03-11T11:41:21.789Z,23.96
2023-03-11T11:42:21.856Z,23.99
2023-03-11T11:43:21.950Z,23.97
2023-03-11T11:44:22.023Z,23.97
2023-03-11T11:45:22.106Z,23.99
2023-03-11T11:46:22.232Z,23.99
2023-03-11T11:47:22.271Z,23.96
2023-03-11T11:48:22.355Z,23.97
2023-03-11T11:49:22.425Z,23.97
2023-03-11T11:50:22.506Z,23.97
2023-03-11T11:51:22.595Z,23.96
2023-03-11T13:06:29.498Z,23.97
2023-03-11T13:07:29.026Z,23.95
2023-03-11T13:08:29.105Z,23.95
2023-03-11T13:09:31.400Z,23.95
2023-03-11T13:10:29.275Z,23.96
2023-03-11T13:11:29.366Z,23.96
2023-03-11T13:12:29.524Z,23.97
2023-03-11T13:13:30.497Z,23.95
2023-03-11T13:14:29.584Z,23.95
2023-03-11T13:15:29.664Z,23.96
2023-03-11T13:16:29.774Z,23.93
2023-03-11T13:17:29.826Z,23.95
2023-03-11T13:18:29.913Z,23.91
2023-03-11T13:19:29.977Z,23.95
2023-03-11T13:20:30.053Z,23.93
2023-03-11T13:21:30.142Z,23.93
2023-03-11T13:22:30.214Z,23.93
2023-03-11T13:23:30.290Z,23.95
2023-03-11T13:24:30.409Z,23.93
2023-03-11T13:25:30.523Z,23.91
2023-03-11T13:26:30.599Z,23.93
2023-03-11T13:27:30.632Z,23.95
2023-03-11T13:28:31.504Z,23.93
2023-03-11T13:29:30.798Z,23.91
2023-03-11T13:30:30.883Z,23.91
2023-03-11T13:31:31.030Z,23.90
2023-03-11T13:32:31.082Z,23.91
2023-03-11T13:33:31.130Z,23.93
2023-03-11T13:34:31.209Z,23.91
2023-03-11T13:35:31.285Z,23.90
2023-03-11T13:36:31.359Z,23.91
2023-03-11T13:37:31.444Z,23.93
2023-03-11T13:38:31.528Z,23.93
2023-03-11T13:39:31.604Z,23.90
2023-03-11T13:40:31.716Z,23.91
2023-03-11T13:41:31.779Z,23.91
2023-03-11T13:42:31.935Z,23.90
2023-03-11T13:43:31.929Z,23.93
2023-03-11T13:44:32.015Z,23.91
2023-03-11T13:45:32.181Z,23.91
2023-03-11T13:46:32.189Z,23.91
2023-03-11T13:47:32.275Z,23.90
2023-03-11T13:48:32.367Z,23.93
2023-03-11T13:49:32.452Z,23.91
2023-03-11T13:50:32.530Z,23.93
2023-03-11T13:51:33.520Z,23.91
2023-03-11T13:52:32.706Z,23.90
2023-03-11T13:53:32.811Z,23.91
2023-03-11T13:54:32.946Z,23.91
2023-03-11T13:55:32.957Z,23.89
2023-03-11T13:56:33.065Z,23.90
2023-03-11T13:57:33.135Z,23.90
2023-03-11T13:58:33.220Z,23.89
2023-03-11T13:59:33.304Z,23.91
2023-03-11T14:00:33.392Z,23.89
2023-03-11T14:01:33.472Z,23.90
2023-03-11T14:02:33.553Z,23.90
2023-03-11T14:03:33.642Z,23.91
2023-03-11T14:04:33.726Z,23.90
2023-03-11T14:05:33.802Z,23.90
2023-03-11T14:06:33.910Z,23.89
2023-03-11T14:07:34.050Z,23.90
2023-03-11T14:08:34.055Z,23.89
2023-03-11T14:09:34.207Z,23.89
2023-03-11T14:10:34.225Z,23.90
2023-03-11T14:11:34.312Z,23.89
2023-03-11T14:12:34.389Z,23.89
2023-03-11T14:13:34.471Z,23.87
2023-03-11T14:14:34.557Z,23.89
2023-03-11T14:15:35.531Z,23.87
2023-03-11T14:16:34.804Z,23.89
2023-03-11T14:17:34.809Z,23.86
2023-03-11T14:18:34.907Z,23.87
2023-03-11T14:19:34.986Z,23.90
2023-03-11T14:20:35.107Z,23.87
2023-03-11T14:21:35.150Z,23.87
2023-03-11T14:22:35.228Z,23.89
2023-03-11T14:23:35.329Z,23.86
2023-03-11T14:24:35.422Z,23.86
2023-03-11T14:25:35.506Z,23.89
2023-03-11T14:26:35.595Z,23.86
2023-03-11T14:27:35.700Z,23.86
2023-03-11T14:28:35.788Z,23.89
2023-03-11T14:29:35.841Z,23.86
2023-03-11T14:30:35.930Z,23.89
2023-03-11T14:31:36.057Z,23.87
2023-03-11T14:32:36.218Z,23.87
2023-03-11T14:33:36.194Z,23.86
2023-03-11T14:34:36.287Z,23.87
2023-03-11T14:35:37.804Z,23.86
2023-03-11T14:36:36.394Z,23.86
2023-03-11T14:37:36.409Z,23.86
2023-03-11T14:38:36.444Z,23.86
2023-03-11T14:39:36.459Z,23.87
2023-03-11T14:40:36.491Z,23.87
2023-03-11T14:41:36.574Z,23.86
2023-03-11T14:42:37.604Z,23.86
2023-03-11T14:43:36.567Z,23.86
2023-03-11T14:44:37.533Z,23.86
2023-03-11T14:45:36.677Z,23.86
2023-03-11T14:46:36.634Z,23.87
2023-03-11T14:47:36.646Z,23.86
2023-03-11T14:48:36.694Z,23.86
2023-03-11T14:49:36.680Z,23.87
2023-03-11T14:50:36.714Z,23.86
2023-03-11T14:51:36.736Z,23.86
2023-03-11T14:52:36.767Z,23.87
2023-03-11T14:53:36.790Z,23.84
2023-03-11T14:54:36.820Z,23.84
2023-03-11T14:55:36.841Z,23.83
2023-03-11T14:56:36.872Z,23.87
2023-03-11T14:57:36.881Z,23.86
2023-03-11T14:58:37.044Z,23.83
2023-03-11T14:59:36.940Z,23.87
2023-03-11T15:00:37.045Z,23.86
2023-03-11T15:01:37.009Z,23.89
2023-03-11T15:02:36.988Z,23.86
2023-03-11T15:03:37.093Z,23.86
2023-03-11T15:04:37.142Z,23.86
2023-03-11T15:05:37.208Z,23.86
2023-03-11T15:06:37.355Z,23.86
2023-03-11T15:07:37.368Z,23.86
2023-03-11T15:08:37.534Z,23.86
2023-03-11T15:09:37.533Z,23.84
2023-03-11T15:10:37.624Z,23.84
2023-03-11T15:11:37.698Z,23.83
2023-03-11T15:12:37.797Z,23.83
2023-03-11T15:13:37.917Z,23.86
2023-03-11T15:14:37.954Z,23.83
2023-03-11T15:15:38.056Z,23.84
2023-03-11T15:16:38.172Z,23.86
2023-03-11T15:17:43.814Z,23.81
2023-03-11T15:18:39.256Z,23.84
2023-03-11T15:19:38.292Z,23.83
2023-03-11T15:20:38.382Z,23.84
2023-03-11T15:21:38.319Z,23.84
2023-03-11T15:22:38.335Z,23.83
2023-03-11T15:23:38.379Z,23.86
2023-03-11T15:24:38.392Z,23.81
2023-03-11T15:25:38.421Z,23.86
2023-03-11T15:26:38.437Z,23.84
2023-03-11T15:27:38.495Z,23.81
2023-03-11T15:28:38.578Z,23.84
2023-03-11T15:29:38.689Z,23.84
2023-03-11T15:30:38.799Z,23.84
2023-03-11T15:31:39.557Z,23.81
2023-03-11T15:32:39.106Z,23.80
2023-03-11T15:33:39.026Z,23.80
2023-03-11T15:34:39.112Z,23.80
2023-03-11T15:35:39.203Z,23.79
2023-03-11T15:36:39.300Z,23.79
2023-03-11T15:37:39.385Z,23.77
2023-03-11T15:38:39.476Z,23.79
2023-03-11T15:39:39.556Z,23.79
2023-03-11T15:40:45.740Z,23.79
2023-03-11T15:41:40.666Z,23.79
2023-03-11T15:42:39.697Z,23.79
2023-03-11T15:43:39.698Z,23.76
2023-03-11T15:44:39.730Z,23.77
2023-03-11T15:45:39.753Z,23.79
2023-03-11T15:46:39.779Z,23.77
2023-03-11T15:47:39.791Z,23.77
2023-03-11T15:48:39.833Z,23.77
2023-03-11T15:49:39.837Z,23.76
2023-03-11T15:50:52.422Z,23.77
2023-03-11T15:51:40.918Z,23.77
2023-03-11T15:52:39.935Z,23.76
2023-03-11T15:53:39.975Z,23.76
2023-03-11T15:54:39.975Z,23.76
2023-03-11T15:55:39.997Z,23.74
2023-03-11T15:56:40.008Z,23.74
2023-03-11T15:57:40.036Z,23.72
2023-03-11T15:58:40.065Z,23.76
2023-03-11T15:59:40.082Z,23.73
2023-03-11T16:00:40.147Z,23.73
2023-03-11T16:01:40.237Z,23.74
2023-03-11T16:02:40.350Z,23.73
2023-03-11T16:03:40.667Z,23.73
2023-03-11T16:04:40.640Z,23.74
2023-03-11T16:05:40.624Z,23.73
2023-03-11T16:06:40.707Z,23.73
2023-03-11T16:07:40.813Z,23.74
2023-03-11T16:08:40.908Z,23.72
2023-03-11T16:09:40.994Z,23.72
2023-03-11T16:10:41.080Z,23.72
2023-03-11T16:11:41.169Z,23.72
2023-03-11T16:12:41.263Z,23.70
2023-03-11T16:13:41.354Z,23.72
2023-03-11T16:14:41.511Z,23.72
2023-03-11T16:15:41.584Z,23.70
2023-03-11T16:16:41.631Z,23.69
2023-03-11T16:17:49.731Z,23.69
2023-03-11T16:18:42.764Z,23.68
2023-03-11T16:19:41.782Z,23.70
2023-03-11T16:20:41.828Z,23.70
2023-03-11T16:21:41.862Z,23.69
2023-03-11T16:22:41.881Z,23.68
2023-03-11T16:24:41.943Z,23.70
2023-03-11T17:45:48.957Z,23.58
2023-03-11T17:46:49.052Z,23.58
2023-03-11T17:47:49.090Z,23.58
2023-03-11T17:48:49.167Z,23.58
2023-03-11T17:49:49.264Z,23.55
2023-03-11T17:50:49.338Z,23.56
2023-03-11T17:51:50.107Z,23.59
2023-03-11T17:52:49.506Z,23.56
2023-03-11T17:53:49.641Z,23.58
2023-03-11T17:54:49.693Z,23.59
2023-03-11T17:55:49.772Z,23.58
2023-03-11T17:56:49.905Z,23.56
2023-03-11T17:57:49.973Z,23.58
2023-03-11T17:58:50.000Z,23.58
2023-03-11T17:59:50.067Z,23.56
2023-03-11T18:00:50.152Z,23.58
2023-03-11T18:01:50.272Z,23.56
2023-03-11T18:02:50.301Z,23.58
2023-03-11T18:03:50.404Z,23.58
2023-03-11T18:04:50.479Z,23.56
2023-03-11T18:05:50.544Z,23.59
2023-03-11T18:06:50.611Z,23.58
2023-03-11T18:07:50.693Z,23.55
2023-03-11T18:08:50.765Z,23.58
2023-03-11T18:09:50.820Z,23.56
2023-03-11T18:10:50.896Z,23.56
2023-03-11T18:11:50.979Z,23.55
2023-03-11T18:12:51.055Z,23.55
2023-03-11T18:13:51.155Z,23.58
2023-03-11T18:14:51.214Z,23.56
2023-03-11T18:15:51.295Z,23.56
2023-03-11T18:16:51.487Z,23.58
2023-03-11T18:17:51.437Z,23.58
2023-03-11T18:18:51.522Z,23.58
2023-03-11T18:19:51.591Z,23.53
2023-03-11T18:20:51.670Z,23.56
2023-03-11T18:21:51.741Z,23.58
2023-03-11T18:22:51.810Z,23.58
2023-03-11T18:23:51.908Z,23.55
2023-03-11T18:24:52.037Z,23.53
2023-03-11T18:25:52.086Z,23.53
2023-03-11T18:26:52.134Z,23.53
2023-03-11T18:27:52.198Z,23.56
2023-03-11T18:28:52.259Z,23.55
2023-03-11T18:29:52.368Z,23.55
2023-03-11T18:30:52.423Z,23.55
2023-03-11T18:31:52.649Z,23.55
2023-03-11T18:32:52.631Z,23.55
2023-03-11T18:33:52.667Z,23.55
2023-03-11T18:34:52.745Z,23.53
2023-03-11T18:35:52.855Z,23.55
2023-03-11T18:36:52.903Z,23.55
2023-03-11T18:37:52.982Z,23.53
2023-03-11T18:38:53.083Z,23.56
2023-03-11T18:39:53.139Z,23.53
2023-03-11T18:40:53.280Z,23.53
2023-03-11T18:41:53.362Z,23.55
2023-03-11T18:42:53.344Z,23.55
2023-03-11T18:43:53.423Z,23.56
2023-03-11T18:44:53.508Z,23.53
2023-03-11T18:45:53.627Z,23.53
2023-03-11T18:46:53.689Z,23.53
2023-03-11T18:47:53.761Z,23.55
2023-03-11T18:48:53.842Z,23.55
2023-03-11T18:49:53.965Z,23.55
2023-03-11T18:50:54.001Z,23.53
2023-03-11T18:51:54.081Z,23.53
2023-03-11T18:52:54.624Z,23.53
2023-03-11T18:53:54.238Z,23.55
2023-03-11T18:54:54.326Z,23.53
2023-03-11T18:55:54.410Z,23.53
2023-03-11T18:56:54.474Z,23.53
2023-03-11T18:57:54.561Z,23.53
2023-03-11T18:58:54.630Z,23.52
2023-03-11T18:59:54.738Z,23.52
2023-03-11T19:00:54.816Z,23.53
2023-03-11T19:01:54.851Z,23.52
2023-03-11T19:02:54.925Z,23.51
2023-03-11T19:03:54.988Z,23.53
2023-03-11T19:04:55.105Z,23.53
2023-03-11T19:54:58.940Z,23.52
2023-03-11T19:55:59.030Z,23.53
2023-03-11T19:56:59.079Z,23.52
2023-03-11T19:57:59.224Z,23.49
2023-03-11T19:58:59.230Z,23.52
2023-03-11T19:59:59.342Z,23.52
2023-03-11T20:00:59.437Z,23.52
2023-03-11T20:01:59.492Z,23.56
2023-03-11T20:02:59.587Z,23.53
2023-03-11T20:03:59.615Z,23.56
2023-03-11T20:04:59.724Z,23.52
2023-03-11T20:05:59.825Z,23.53
2023-03-11T20:06:59.850Z,23.53
2023-03-11T20:07:59.964Z,23.52
2023-03-11T20:09:00.005Z,23.53
2023-03-11T20:10:00.103Z,23.53
2023-03-11T20:11:00.180Z,23.53
2023-03-11T20:12:01.198Z,23.53
2023-03-11T20:13:02.613Z,23.55
2023-03-11T20:14:00.522Z,23.51
2023-03-11T20:15:00.614Z,23.52
2023-03-11T20:16:00.704Z,23.52
2023-03-11T20:17:00.816Z,23.52
2023-03-11T20:18:00.876Z,23.53
2023-03-11T20:19:00.923Z,23.53
2023-03-11T20:20:01.014Z,23.52
2023-03-11T20:21:01.057Z,23.52
2023-03-11T20:22:01.230Z,23.53
2023-03-11T20:23:01.235Z,23.55
2023-03-11T20:24:01.286Z,23.52
2023-03-11T20:25:01.441Z,23.52
2023-03-11T20:26:01.431Z,23.53
2023-03-11T20:27:01.605Z,23.53
2023-03-11T20:28:01.585Z,23.52
2023-03-11T20:29:01.663Z,23.52
2023-03-11T20:30:01.780Z,23.53
2023-03-11T20:31:02.241Z,23.53
2023-03-11T20:32:02.043Z,23.53
2023-03-11T20:33:02.054Z,23.52
2023-03-11T20:34:02.118Z,23.55
2023-03-11T20:35:02.239Z,23.52
2023-03-11T20:36:02.393Z,23.52
2023-03-11T20:37:02.437Z,23.55
2023-03-11T20:38:02.446Z,23.53
2023-03-11T20:39:02.679Z,23.52
2023-03-11T20:40:02.626Z,23.53
2023-03-11T22:01:09.001Z,23.53
2023-03-11T22:02:09.180Z,23.53
2023-03-11T22:03:09.274Z,23.52
2023-03-11T22:04:09.378Z,23.51
2023-03-11T22:05:09.315Z,23.53
2023-03-11T22:06:09.356Z,23.52
2023-03-11T22:07:09.451Z,23.52
2023-03-11T22:08:09.502Z,23.52
2023-03-11T22:09:09.706Z,23.52
2023-03-11T22:10:09.669Z,23.53
2023-03-11T22:11:09.813Z,23.51
2023-03-11T22:12:09.842Z,23.52
2023-03-11T22:13:09.941Z,23.49
2023-03-11T22:14:10.120Z,23.51
2023-03-11T22:15:10.094Z,23.51
2023-03-11T22:16:10.350Z,23.49
2023-03-11T22:17:10.345Z,23.52
2023-03-11T22:18:10.492Z,23.51
2023-03-11T22:19:10.453Z,23.51
2023-03-11T22:20:10.415Z,23.49
2023-03-11T22:21:11.028Z,23.51
2023-03-11T22:22:10.679Z,23.51
2023-03-11T22:23:10.628Z,23.51
2023-03-11T22:24:10.699Z,23.51
2023-03-11T22:25:10.780Z,23.52
2023-03-11T22:26:10.879Z,23.51
2023-03-11T22:27:10.945Z,23.51
2023-03-11T22:28:11.020Z,23.51
2023-03-11T22:29:13.443Z,23.52
2023-03-11T22:30:11.287Z,23.49
2023-03-11T22:31:11.383Z,23.52
2023-03-11T22:32:11.435Z,23.51
2023-03-11T22:33:11.523Z,23.49
2023-03-11T22:34:11.622Z,23.49
2023-03-11T22:35:11.681Z,23.49
2023-03-11T22:36:11.830Z,23.51
2023-03-11T22:37:11.822Z,23.49
2023-03-11T22:38:11.891Z,23.51
2023-03-11T22:39:11.969Z,23.52
2023-03-11T22:40:12.040Z,23.49
2023-03-11T22:41:12.115Z,23.52
2023-03-11T22:42:12.188Z,23.51
2023-03-11T22:43:12.283Z,23.48
2023-03-11T22:44:12.370Z,23.51
2023-03-11T22:45:12.470Z,23.51
2023-03-11T22:46:12.608Z,23.52
2023-03-11T22:47:12.650Z,23.52
2023-03-11T22:48:12.713Z,23.51
2023-03-11T22:49:12.777Z,23.48
2023-03-11T22:59:13.609Z,23.48
2023-03-11T23:00:13.679Z,23.52
2023-03-11T23:01:13.771Z,23.51
2023-03-11T23:02:13.824Z,23.48
2023-03-11T23:03:13.951Z,23.49
2023-03-11T23:05:14.077Z,23.48
2023-03-11T23:06:14.134Z,23.49
2023-03-11T23:07:14.202Z,23.48
2023-03-11T23:08:14.359Z,23.49
2023-03-11T23:09:14.444Z,23.48
2023-03-11T23:10:14.453Z,23.49
2023-03-11T23:11:14.563Z,23.49
2023-03-11T23:12:14.620Z,23.49
2023-03-11T23:13:14.728Z,23.49
2023-03-11T23:14:14.760Z,23.49
2023-03-11T23:15:14.855Z,23.49
2023-03-11T23:16:14.960Z,23.49
2023-03-11T23:17:15.016Z,23.52
2023-03-11T23:18:15.105Z,23.49
2023-03-11T23:19:15.174Z,23.51
2023-03-11T23:20:15.289Z,23.51
2023-03-11T23:21:15.350Z,23.51
2023-03-11T23:22:15.552Z,23.51
2023-03-11T23:23:15.534Z,23.51
2023-03-11T23:24:15.601Z,23.51
2023-03-11T23:26:15.756Z,23.52
2023-03-11T23:27:15.891Z,23.51
2023-03-11T23:28:15.998Z,23.51
2023-03-11T23:29:16.002Z,23.51
2023-03-11T23:30:16.100Z,23.49
2023-03-11T23:31:16.365Z,23.51
2023-03-11T23:32:16.280Z,23.51
2023-03-11T23:33:16.336Z,23.51
2023-03-11T23:34:16.411Z,23.51
2023-03-11T23:36:16.592Z,23.48
2023-03-11T23:37:16.644Z,23.49
